North Dighton, Massachusetts
Current Conditions -  °F | °C
As of 4:52 AM on Sunday 25 Jan 2015 (Local Time) from KTAN Reporting Station
Overcast Overcast  
Wind Chill: 26°   Ceiling: 8000
Heat Index: 32°   Visibility: 10mi
Dew Point: 27°   Wind: 7mph
Humidity: 82%   Direction: 260°W
Pressure: 29.46"   Gusts: NA
Location:  41.86°N, 71.12°W
Report Text: KTAN 250952Z AUTO 26006KT 10SM OVC080 00/M03 A2946 RMK AO2 SLP975 T00001028
Loading
Personal Weather Stations






























Interactive Weather Map New forecast layout! Learn more

10-Day Weather Forecast

Advertisements
Track Severe Weather on mobile